Time;durP1;ratioP1;P1;durP2;ratioP2;P2;SDS_P1;SDS_P2;PMS_P1;PMS_P2;Temp;Humidity;BMP_temperature;BMP_pressure;BME280_temperature;BME280_humidity;BME280_pressure;Samples;Min_cycle;Max_cycle;Signal;HPM_P1;HPM_P2
2021/07/17 00:02:14;;;;;;;;;;;23.00;81.60;;;;;;5190227;28;19941;-56
2021/07/17 00:04:46;;;;;;;;;;;23.10;82.10;;;;;;5193722;28;19929;-58
2021/07/17 00:07:20;;;;;;;;;;;23.10;81.70;;;;;;5190093;28;20341;-58
2021/07/17 00:09:52;;;;;;;;;;;23.10;82.00;;;;;;5198612;28;19952;-59
2021/07/17 00:12:25;;;;;;;;;;;23.10;82.20;;;;;;5201418;28;19929;-59
2021/07/17 00:14:58;;;;;;;;;;;23.10;82.30;;;;;;5201384;28;20401;-58
2021/07/17 00:17:30;;;;;;;;;;;23.20;82.50;;;;;;5194109;28;19936;-59
2021/07/17 00:20:06;;;;;;;;;;;23.20;82.60;;;;;;5198938;28;19932;-58
2021/07/17 00:22:38;;;;;;;;;;;23.20;82.70;;;;;;5168684;28;19925;-58
2021/07/17 00:25:12;;;;;;;;;;;23.20;82.70;;;;;;5193049;28;21225;-57
2021/07/17 00:27:45;;;;;;;;;;;23.20;83.30;;;;;;5189559;28;20357;-58
2021/07/17 00:30:19;;;;;;;;;;;23.20;83.50;;;;;;5191497;28;19931;-58
2021/07/17 00:33:06;;;;;;;;;;;23.30;83.50;;;;;;5194804;28;20400;-56
2021/07/17 00:35:39;;;;;;;;;;;23.30;84.30;;;;;;5193796;28;19936;-58
2021/07/17 00:38:11;;;;;;;;;;;23.30;84.20;;;;;;5193673;28;20412;-56
2021/07/17 00:40:43;;;;;;;;;;;23.30;84.40;;;;;;5198338;28;19928;-57
2021/07/17 00:43:16;;;;;;;;;;;23.30;84.40;;;;;;5198900;28;19925;-58
2021/07/17 00:45:48;;;;;;;;;;;23.30;83.90;;;;;;5195371;28;19939;-59
2021/07/17 00:48:23;;;;;;;;;;;23.30;83.90;;;;;;5198876;28;19928;-58
2021/07/17 00:50:56;;;;;;;;;;;23.30;84.00;;;;;;5196537;28;19921;-55
2021/07/17 00:53:40;;;;;;;;;;;23.30;84.00;;;;;;5203403;28;19925;-57
2021/07/17 00:56:13;;;;;;;;;;;23.30;84.10;;;;;;5202685;28;19925;-56
2021/07/17 00:58:46;;;;;;;;;;;23.30;84.30;;;;;;5201794;28;20505;-58
2021/07/17 01:01:19;;;;;;;;;;;23.30;84.30;;;;;;5202171;28;19925;-58
2021/07/17 01:03:51;;;;;;;;;;;23.30;84.70;;;;;;5201498;28;20493;-59
2021/07/17 01:06:23;;;;;;;;;;;23.30;84.60;;;;;;5198921;28;19932;-58
2021/07/17 01:08:56;;;;;;;;;;;23.30;85.50;;;;;;5200630;28;20420;-57
2021/07/17 01:11:28;;;;;;;;;;;23.30;86.00;;;;;;5182931;28;20424;-58
2021/07/17 01:14:00;;;;;;;;;;;23.30;87.00;;;;;;5204699;28;19932;-58
2021/07/17 01:16:33;;;;;;;;;;;23.30;86.70;;;;;;5199855;28;20530;-57
2021/07/17 01:19:11;;;;;;;;;;;23.30;86.70;;;;;;5181916;28;19925;-59
2021/07/17 01:21:43;;;;;;;;;;;23.30;87.00;;;;;;5181508;28;20273;-59
2021/07/17 01:24:15;;;;;;;;;;;23.30;86.90;;;;;;5200491;28;19929;-58
2021/07/17 01:26:48;;;;;;;;;;;23.30;88.10;;;;;;4499346;28;9999938;-57
2021/07/17 01:29:20;;;;;;;;;;;23.30;87.60;;;;;;5152259;28;19936;-58
2021/07/17 01:31:52;;;;;;;;;;;23.30;87.80;;;;;;5211854;28;19929;-59
2021/07/17 01:34:25;;;;;;;;;;;23.40;88.20;;;;;;5201471;28;20354;-55
2021/07/17 01:37:06;;;;;;;;;;;23.30;88.20;;;;;;5194950;28;19925;-56
2021/07/17 01:39:39;;;;;;;;;;;23.40;88.20;;;;;;5194206;28;19925;-59
2021/07/17 01:42:11;;;;;;;;;;;23.40;87.80;;;;;;5192800;28;20373;-58
2021/07/17 01:44:44;;;;;;;;;;;23.40;88.20;;;;;;5195594;28;19928;-59
2021/07/17 01:47:17;;;;;;;;;;;23.40;88.50;;;;;;5179508;28;19931;-58
2021/07/17 01:49:49;;;;;;;;;;;23.40;87.90;;;;;;5209829;28;19952;-58
2021/07/17 01:52:21;;;;;;;;;;;23.40;88.80;;;;;;5174969;28;19936;-59
2021/07/17 01:54:54;;;;;;;;;;;23.40;88.20;;;;;;5191916;28;19928;-56
2021/07/17 01:57:26;;;;;;;;;;;23.40;87.90;;;;;;5190472;28;19928;-58
2021/07/17 01:59:58;;;;;;;;;;;23.40;87.50;;;;;;5197316;28;19932;-55
2021/07/17 02:02:30;;;;;;;;;;;23.40;87.60;;;;;;5192054;28;19924;-56
2021/07/17 02:05:03;;;;;;;;;;;23.40;87.50;;;;;;5188819;28;19964;-59
2021/07/17 02:07:36;;;;;;;;;;;23.40;86.90;;;;;;5193593;28;19932;-57
2021/07/17 02:10:09;;;;;;;;;;;23.40;87.10;;;;;;5194699;28;20277;-59
2021/07/17 02:13:02;;;;;;;;;;;23.40;87.10;;;;;;5194706;28;19932;-57
2021/07/17 02:15:36;;;;;;;;;;;23.40;87.00;;;;;;5195025;28;20488;-58
2021/07/17 02:18:08;;;;;;;;;;;23.40;87.10;;;;;;5200698;28;19932;-58
2021/07/17 02:20:41;;;;;;;;;;;23.40;86.70;;;;;;5195420;28;20328;-59
2021/07/17 02:23:13;;;;;;;;;;;23.40;87.10;;;;;;5194955;28;20389;-58
2021/07/17 02:25:45;;;;;;;;;;;23.40;86.50;;;;;;5196699;28;19924;-58
2021/07/17 02:28:18;;;;;;;;;;;23.40;86.30;;;;;;5195259;28;19935;-58
2021/07/17 02:30:51;;;;;;;;;;;23.30;86.20;;;;;;5189321;28;19925;-58
2021/07/17 02:33:23;;;;;;;;;;;23.40;85.90;;;;;;5187759;28;19928;-57
2021/07/17 02:35:56;;;;;;;;;;;23.40;86.00;;;;;;5190907;28;19928;-58
2021/07/17 02:38:28;;;;;;;;;;;23.40;85.80;;;;;;5195803;28;19932;-57
2021/07/17 02:41:00;;;;;;;;;;;23.40;85.80;;;;;;5197580;28;19951;-54
2021/07/17 02:43:32;;;;;;;;;;;23.40;86.00;;;;;;5196536;28;19936;-59
2021/07/17 02:46:05;;;;;;;;;;;23.40;85.90;;;;;;5194308;28;19929;-59
2021/07/17 02:48:37;;;;;;;;;;;23.40;85.90;;;;;;5197570;28;20292;-58
2021/07/17 02:51:09;;;;;;;;;;;23.40;85.70;;;;;;5197607;28;19925;-59
2021/07/17 02:53:42;;;;;;;;;;;23.40;85.60;;;;;;5197702;28;19929;-58
2021/07/17 02:56:14;;;;;;;;;;;23.40;85.60;;;;;;5202222;28;19928;-59
2021/07/17 02:58:46;;;;;;;;;;;23.40;85.20;;;;;;5177207;28;19929;-58
2021/07/17 03:01:19;;;;;;;;;;;23.40;85.50;;;;;;5194226;28;19928;-58
2021/07/17 03:03:51;;;;;;;;;;;23.40;85.40;;;;;;5193298;28;19925;-57
2021/07/17 03:06:23;;;;;;;;;;;23.40;85.50;;;;;;5195947;28;19936;-59
2021/07/17 03:08:55;;;;;;;;;;;23.40;85.30;;;;;;5198427;28;20491;-58
2021/07/17 03:11:28;;;;;;;;;;;23.40;85.20;;;;;;5197178;28;19929;-59
2021/07/17 03:14:00;;;;;;;;;;;23.40;85.50;;;;;;5190486;28;19943;-58
2021/07/17 03:16:33;;;;;;;;;;;23.40;85.70;;;;;;5194761;28;20468;-59
2021/07/17 03:19:05;;;;;;;;;;;23.40;85.60;;;;;;5199169;28;19940;-58
2021/07/17 03:21:37;;;;;;;;;;;23.40;85.60;;;;;;5195951;28;19925;-58
2021/07/17 03:24:09;;;;;;;;;;;23.40;85.60;;;;;;5198802;28;19940;-59
2021/07/17 03:26:42;;;;;;;;;;;23.40;85.60;;;;;;5193694;28;19929;-59
2021/07/17 03:29:14;;;;;;;;;;;23.40;85.60;;;;;;5191121;28;19924;-57
2021/07/17 03:31:46;;;;;;;;;;;23.40;85.60;;;;;;5195082;28;19925;-56
2021/07/17 03:34:18;;;;;;;;;;;23.40;85.60;;;;;;5198637;28;20311;-58
2021/07/17 03:36:50;;;;;;;;;;;23.40;85.50;;;;;;5185496;28;19945;-57
2021/07/17 03:39:22;;;;;;;;;;;23.40;85.40;;;;;;5189066;28;19924;-56
2021/07/17 03:41:55;;;;;;;;;;;23.40;85.40;;;;;;5185507;28;19936;-58
2021/07/17 03:44:29;;;;;;;;;;;23.40;85.00;;;;;;5187737;28;20299;-59
2021/07/17 03:47:01;;;;;;;;;;;23.30;85.20;;;;;;5187975;28;19929;-58
2021/07/17 03:49:34;;;;;;;;;;;23.30;85.10;;;;;;5193999;28;19928;-58
2021/07/17 03:52:06;;;;;;;;;;;23.40;85.30;;;;;;5199870;28;19924;-59
2021/07/17 03:54:38;;;;;;;;;;;23.30;85.10;;;;;;5195814;28;19928;-56
2021/07/17 03:57:10;;;;;;;;;;;23.40;85.20;;;;;;5194374;28;20312;-58
2021/07/17 03:59:43;;;;;;;;;;;23.40;84.70;;;;;;5180042;28;19929;-56
2021/07/17 04:02:15;;;;;;;;;;;23.30;84.90;;;;;;5191795;28;19931;-57
2021/07/17 04:04:49;;;;;;;;;;;23.30;85.00;;;;;;5170642;28;20503;-58
2021/07/17 04:07:21;;;;;;;;;;;23.30;85.00;;;;;;5185719;28;19936;-59
2021/07/17 04:09:53;;;;;;;;;;;23.30;85.00;;;;;;5173600;28;19925;-55
2021/07/17 04:12:26;;;;;;;;;;;23.30;85.10;;;;;;5164449;28;19928;-59
2021/07/17 04:14:58;;;;;;;;;;;23.30;85.00;;;;;;5190029;28;19928;-58
2021/07/17 04:17:31;;;;;;;;;;;23.30;85.10;;;;;;5189946;28;20233;-59
2021/07/17 04:20:04;;;;;;;;;;;23.30;85.10;;;;;;5197624;28;20297;-57
2021/07/17 04:22:37;;;;;;;;;;;23.30;85.00;;;;;;5192407;28;19944;-59
2021/07/17 04:25:11;;;;;;;;;;;23.30;85.00;;;;;;5194300;28;19925;-58
2021/07/17 04:27:44;;;;;;;;;;;23.30;85.00;;;;;;5187814;28;20111;-58
2021/07/17 04:30:16;;;;;;;;;;;23.30;85.00;;;;;;5182516;28;19932;-58
2021/07/17 04:32:48;;;;;;;;;;;23.30;85.00;;;;;;5184338;28;19929;-59
2021/07/17 04:35:21;;;;;;;;;;;23.30;85.10;;;;;;5183839;28;20252;-60
2021/07/17 04:37:53;;;;;;;;;;;23.30;85.20;;;;;;5196904;28;19928;-58
2021/07/17 04:40:25;;;;;;;;;;;23.30;85.10;;;;;;5178232;28;19924;-58
2021/07/17 04:42:57;;;;;;;;;;;23.30;85.10;;;;;;5181912;28;19924;-59
2021/07/17 04:45:29;;;;;;;;;;;23.30;85.10;;;;;;5188526;28;19935;-59
2021/07/17 04:48:04;;;;;;;;;;;23.30;85.30;;;;;;5182331;28;20370;-59
2021/07/17 04:50:37;;;;;;;;;;;23.30;85.40;;;;;;5186909;28;20533;-58
2021/07/17 04:53:10;;;;;;;;;;;23.30;85.50;;;;;;5180570;28;19929;-56
2021/07/17 04:55:42;;;;;;;;;;;23.30;85.70;;;;;;5187124;28;20285;-58
2021/07/17 04:58:14;;;;;;;;;;;23.30;85.60;;;;;;5185798;28;19929;-58
2021/07/17 05:00:47;;;;;;;;;;;23.30;85.80;;;;;;5185034;28;20388;-57
2021/07/17 05:03:19;;;;;;;;;;;23.30;85.50;;;;;;5180150;28;20408;-58
2021/07/17 05:05:51;;;;;;;;;;;23.30;85.90;;;;;;5187413;28;19929;-59
2021/07/17 05:08:24;;;;;;;;;;;23.30;86.10;;;;;;5184095;28;20851;-58
2021/07/17 05:10:56;;;;;;;;;;;23.30;86.20;;;;;;5191941;28;19936;-57
2021/07/17 05:13:28;;;;;;;;;;;23.30;86.30;;;;;;5188266;28;20462;-57
2021/07/17 05:16:01;;;;;;;;;;;23.30;86.20;;;;;;5190758;28;19928;-58
2021/07/17 05:18:34;;;;;;;;;;;23.30;86.20;;;;;;5186758;28;20411;-58
2021/07/17 05:21:06;;;;;;;;;;;23.30;86.20;;;;;;5189057;28;19925;-59
2021/07/17 05:23:38;;;;;;;;;;;23.30;86.50;;;;;;5193425;28;19964;-58
2021/07/17 05:26:12;;;;;;;;;;;23.30;86.60;;;;;;5189421;28;19947;-59
2021/07/17 05:28:44;;;;;;;;;;;23.40;86.70;;;;;;5185499;28;20161;-57
2021/07/17 05:31:18;;;;;;;;;;;23.30;86.40;;;;;;5167104;28;19929;-56
2021/07/17 05:33:50;;;;;;;;;;;23.30;86.70;;;;;;5181408;28;19940;-58
2021/07/17 05:36:22;;;;;;;;;;;23.30;86.80;;;;;;5181556;28;20360;-58
2021/07/17 05:38:54;;;;;;;;;;;23.30;87.00;;;;;;5194110;28;20392;-59
2021/07/17 05:41:27;;;;;;;;;;;23.30;87.00;;;;;;5179278;28;19951;-59
2021/07/17 05:43:59;;;;;;;;;;;23.30;87.00;;;;;;5184996;28;19929;-58
2021/07/17 05:46:31;;;;;;;;;;;23.30;87.00;;;;;;5185816;28;19929;-59
2021/07/17 05:49:03;;;;;;;;;;;23.30;87.00;;;;;;5209257;28;19925;-57
2021/07/17 05:51:36;;;;;;;;;;;23.30;87.20;;;;;;5188905;28;19951;-53
2021/07/17 05:54:08;;;;;;;;;;;23.30;87.00;;;;;;5188555;28;20545;-58
2021/07/17 05:56:40;;;;;;;;;;;23.30;87.10;;;;;;5193402;28;19928;-57
2021/07/17 05:59:12;;;;;;;;;;;23.30;87.20;;;;;;5196297;28;19925;-56
2021/07/17 06:01:44;;;;;;;;;;;23.40;87.30;;;;;;5194551;28;19936;-58
2021/07/17 06:04:17;;;;;;;;;;;23.40;87.10;;;;;;5178917;28;20316;-59
2021/07/17 06:06:49;;;;;;;;;;;23.40;87.30;;;;;;5186593;28;24433;-59
2021/07/17 06:09:21;;;;;;;;;;;23.40;87.40;;;;;;5191015;28;19929;-59
2021/07/17 06:11:53;;;;;;;;;;;23.40;87.20;;;;;;5201904;28;19928;-56
2021/07/17 06:14:27;;;;;;;;;;;23.40;87.90;;;;;;5185781;28;19940;-58
2021/07/17 06:17:00;;;;;;;;;;;23.40;88.50;;;;;;5195648;28;20498;-56
2021/07/17 06:19:32;;;;;;;;;;;23.40;87.60;;;;;;5191637;28;19931;-58
2021/07/17 06:22:05;;;;;;;;;;;23.40;87.40;;;;;;5199017;28;20102;-57
2021/07/17 06:24:38;;;;;;;;;;;23.40;87.20;;;;;;5182952;28;19929;-58
2021/07/17 06:27:10;;;;;;;;;;;23.40;87.80;;;;;;5182605;28;19952;-59
2021/07/17 06:29:42;;;;;;;;;;;23.40;86.40;;;;;;5184714;28;19932;-58
2021/07/17 06:32:18;;;;;;;;;;;23.50;85.30;;;;;;5187200;28;19933;-57
2021/07/17 06:34:50;;;;;;;;;;;23.50;84.20;;;;;;5174350;28;19924;-55
2021/07/17 06:37:23;;;;;;;;;;;23.50;84.00;;;;;;5161164;28;25536;-57
2021/07/17 06:39:55;;;;;;;;;;;23.50;84.20;;;;;;5184981;28;19935;-58
2021/07/17 06:42:27;;;;;;;;;;;23.50;84.00;;;;;;5183512;28;19935;-59
2021/07/17 06:44:59;;;;;;;;;;;23.50;84.00;;;;;;5192391;28;20406;-58
2021/07/17 06:47:31;;;;;;;;;;;23.50;83.30;;;;;;5181699;28;20573;-57
2021/07/17 06:50:05;;;;;;;;;;;23.50;82.90;;;;;;5184168;28;19936;-55
2021/07/17 06:52:37;;;;;;;;;;;23.50;82.90;;;;;;5176463;28;20356;-58
2021/07/17 06:55:09;;;;;;;;;;;23.50;81.70;;;;;;5166350;28;21600;-58
2021/07/17 06:57:43;;;;;;;;;;;23.50;81.60;;;;;;5178400;28;19936;-58
2021/07/17 07:00:16;;;;;;;;;;;23.50;81.50;;;;;;5187732;28;19928;-59
2021/07/17 07:02:51;;;;;;;;;;;23.50;81.60;;;;;;5181555;28;19935;-58
2021/07/17 07:05:24;;;;;;;;;;;23.40;81.80;;;;;;5182401;28;19924;-56
2021/07/17 07:07:56;;;;;;;;;;;23.40;82.00;;;;;;5188036;28;20396;-56
2021/07/17 07:10:28;;;;;;;;;;;23.40;82.10;;;;;;5194330;28;20343;-58
2021/07/17 07:13:08;;;;;;;;;;;23.40;82.10;;;;;;5193817;28;19929;-57
2021/07/17 07:15:40;;;;;;;;;;;23.30;82.20;;;;;;5189871;28;19928;-58
2021/07/17 07:18:13;;;;;;;;;;;23.30;82.50;;;;;;5170051;28;19951;-57
2021/07/17 07:20:45;;;;;;;;;;;23.30;82.50;;;;;;5185218;28;19943;-59
2021/07/17 07:23:18;;;;;;;;;;;23.30;83.30;;;;;;5193298;28;19925;-59
2021/07/17 07:25:50;;;;;;;;;;;23.30;83.00;;;;;;5187215;28;19921;-59
2021/07/17 07:28:22;;;;;;;;;;;23.30;83.20;;;;;;5179084;28;20007;-59
2021/07/17 07:30:54;;;;;;;;;;;23.20;83.30;;;;;;5184843;28;20212;-59
2021/07/17 07:33:27;;;;;;;;;;;23.20;83.50;;;;;;5180734;28;20604;-58
2021/07/17 07:35:59;;;;;;;;;;;23.20;83.70;;;;;;5177799;28;19962;-58
2021/07/17 07:38:31;;;;;;;;;;;23.20;83.80;;;;;;5179565;28;19995;-58
2021/07/17 07:41:03;;;;;;;;;;;23.10;83.70;;;;;;5183713;28;19948;-59
2021/07/17 07:43:36;;;;;;;;;;;23.20;83.80;;;;;;5178783;28;20364;-59
2021/07/17 07:46:08;;;;;;;;;;;23.10;83.80;;;;;;5182996;28;19929;-58
2021/07/17 07:48:41;;;;;;;;;;;23.10;83.80;;;;;;5181232;28;19924;-59
2021/07/17 07:51:14;;;;;;;;;;;23.10;84.00;;;;;;5180588;28;19932;-57
2021/07/17 07:53:46;;;;;;;;;;;23.10;84.20;;;;;;5182126;28;19936;-58
2021/07/17 07:56:18;;;;;;;;;;;23.00;84.30;;;;;;5167115;28;19925;-59
2021/07/17 07:58:51;;;;;;;;;;;23.10;84.50;;;;;;5181469;28;19932;-58
2021/07/17 08:01:23;;;;;;;;;;;23.00;84.60;;;;;;5182490;28;19929;-59
2021/07/17 08:03:55;;;;;;;;;;;23.00;84.80;;;;;;5172179;28;20187;-58
2021/07/17 08:06:28;;;;;;;;;;;23.00;84.90;;;;;;5184753;28;20263;-58
2021/07/17 08:09:00;;;;;;;;;;;23.00;84.90;;;;;;5180269;28;19924;-58
2021/07/17 08:11:32;;;;;;;;;;;23.00;84.90;;;;;;5177159;28;19943;-55
2021/07/17 08:14:04;;;;;;;;;;;22.90;85.00;;;;;;5168713;28;19948;-59
2021/07/17 08:16:37;;;;;;;;;;;22.90;85.20;;;;;;5161790;28;20134;-63
2021/07/17 08:19:09;;;;;;;;;;;22.90;85.50;;;;;;5154982;28;19929;-61
2021/07/17 08:21:41;;;;;;;;;;;22.90;85.50;;;;;;5161491;28;20304;-61
2021/07/17 08:24:14;;;;;;;;;;;22.90;85.30;;;;;;5162564;28;19951;-61
2021/07/17 08:26:46;;;;;;;;;;;23.00;86.20;;;;;;5163306;28;20501;-59
2021/07/17 08:29:18;;;;;;;;;;;23.10;86.90;;;;;;5151079;28;19940;-58
2021/07/17 08:31:51;;;;;;;;;;;23.30;85.80;;;;;;5157539;28;20451;-62
2021/07/17 08:34:23;;;;;;;;;;;23.30;85.40;;;;;;5125435;28;20528;-61
2021/07/17 08:36:56;;;;;;;;;;;23.40;84.90;;;;;;5131317;28;20612;-62
2021/07/17 08:39:28;;;;;;;;;;;23.60;84.40;;;;;;4460249;28;9999983;-62
2021/07/17 08:42:03;;;;;;;;;;;23.60;82.70;;;;;;5163965;28;19929;-61
2021/07/17 08:44:39;;;;;;;;;;;23.70;82.30;;;;;;5127914;28;20012;-60
2021/07/17 08:47:11;;;;;;;;;;;23.70;82.20;;;;;;5143163;28;20614;-62
2021/07/17 08:49:44;;;;;;;;;;;23.70;81.00;;;;;;5136304;28;20970;-63
2021/07/17 08:52:16;;;;;;;;;;;23.80;80.90;;;;;;5145255;28;20588;-62
2021/07/17 08:54:49;;;;;;;;;;;23.80;80.70;;;;;;5166513;28;19925;-62
2021/07/17 08:57:21;;;;;;;;;;;23.80;81.00;;;;;;5160893;28;19932;-61
2021/07/17 08:59:55;;;;;;;;;;;23.90;80.30;;;;;;5159373;28;19929;-63
2021/07/17 09:02:29;;;;;;;;;;;23.90;80.10;;;;;;5161912;28;20912;-63
2021/07/17 09:05:01;;;;;;;;;;;23.90;80.00;;;;;;5167381;28;19931;-62
2021/07/17 09:07:34;;;;;;;;;;;23.90;79.90;;;;;;5156158;28;20344;-62
2021/07/17 09:10:25;;;;;;;;;;;23.90;79.90;;;;;;5151421;28;19935;-62
2021/07/17 09:13:06;;;;;;;;;;;23.90;79.70;;;;;;5156799;28;19928;-63
2021/07/17 09:15:40;;;;;;;;;;;23.90;79.70;;;;;;5168425;28;19924;-63
2021/07/17 09:18:13;;;;;;;;;;;24.00;79.70;;;;;;5177184;28;19963;-62
2021/07/17 09:20:53;;;;;;;;;;;23.90;80.30;;;;;;5162918;28;19987;-62
2021/07/17 09:23:26;;;;;;;;;;;24.00;79.50;;;;;;5166467;28;20365;-62
2021/07/17 09:26:01;;;;;;;;;;;24.00;79.60;;;;;;5170868;28;19924;-62
2021/07/17 09:28:34;;;;;;;;;;;24.00;79.40;;;;;;5176003;28;20308;-63
2021/07/17 09:31:07;;;;;;;;;;;24.00;79.20;;;;;;5182424;28;19924;-63
2021/07/17 09:33:39;;;;;;;;;;;24.00;79.20;;;;;;5182635;28;19925;-61
2021/07/17 09:36:14;;;;;;;;;;;24.00;79.30;;;;;;5171481;28;19932;-62
2021/07/17 09:38:50;;;;;;;;;;;24.00;79.30;;;;;;5171799;28;19924;-62
2021/07/17 09:41:22;;;;;;;;;;;24.00;79.30;;;;;;5151178;28;19932;-61
2021/07/17 09:44:04;;;;;;;;;;;24.00;79.20;;;;;;5169370;28;19938;-63
2021/07/17 09:46:36;;;;;;;;;;;24.10;79.10;;;;;;5180270;28;20415;-62
2021/07/17 09:49:08;;;;;;;;;;;24.10;79.10;;;;;;5182494;28;19952;-62
2021/07/17 09:51:41;;;;;;;;;;;24.10;78.90;;;;;;5176651;28;19936;-61
2021/07/17 09:54:13;;;;;;;;;;;24.10;78.90;;;;;;5177056;28;20403;-61
2021/07/17 09:56:46;;;;;;;;;;;24.10;79.10;;;;;;5167153;28;19932;-63
2021/07/17 09:59:18;;;;;;;;;;;24.20;79.50;;;;;;5182421;28;19936;-62
2021/07/17 10:01:50;;;;;;;;;;;24.30;79.00;;;;;;5187171;28;20516;-63
2021/07/17 10:04:24;;;;;;;;;;;24.30;78.80;;;;;;5181175;28;20224;-63
2021/07/17 10:06:58;;;;;;;;;;;24.40;78.90;;;;;;5181886;28;20420;-61
2021/07/17 10:09:31;;;;;;;;;;;24.50;78.80;;;;;;5175690;28;24745;-62
2021/07/17 10:12:05;;;;;;;;;;;24.50;78.30;;;;;;5151406;28;19925;-63
2021/07/17 10:14:38;;;;;;;;;;;24.50;77.90;;;;;;5151467;28;19936;-62
2021/07/17 10:17:11;;;;;;;;;;;24.50;77.70;;;;;;5176876;28;19924;-63
2021/07/17 10:19:44;;;;;;;;;;;24.50;77.80;;;;;;5163338;28;20357;-62
2021/07/17 10:22:16;;;;;;;;;;;24.60;77.70;;;;;;5174571;28;19924;-61
2021/07/17 10:24:48;;;;;;;;;;;24.50;77.40;;;;;;5160411;28;20314;-61
2021/07/17 10:27:21;;;;;;;;;;;24.50;77.60;;;;;;5164547;28;19925;-62
2021/07/17 10:29:53;;;;;;;;;;;24.50;77.90;;;;;;5148619;28;19924;-63
2021/07/17 10:32:25;;;;;;;;;;;24.40;78.20;;;;;;5164437;28;22797;-63
2021/07/17 10:34:57;;;;;;;;;;;24.40;78.20;;;;;;5171851;28;19936;-62
2021/07/17 10:37:34;;;;;;;;;;;24.40;78.30;;;;;;5167432;28;19929;-62
2021/07/17 10:40:08;;;;;;;;;;;24.40;78.20;;;;;;5170021;28;19924;-62
2021/07/17 10:42:45;;;;;;;;;;;24.40;78.20;;;;;;5169879;28;20399;-62
2021/07/17 10:45:36;;;;;;;;;;;24.40;78.40;;;;;;5158332;28;20673;-63
2021/07/17 10:48:22;;;;;;;;;;;24.40;78.40;;;;;;5168588;28;19925;-63
2021/07/17 10:50:55;;;;;;;;;;;24.40;78.30;;;;;;5162336;28;19929;-61
2021/07/17 10:53:40;;;;;;;;;;;24.30;78.40;;;;;;5154170;28;19933;-61
2021/07/17 10:56:27;;;;;;;;;;;24.30;78.80;;;;;;5154886;28;19925;-61
2021/07/17 10:59:00;;;;;;;;;;;24.30;79.00;;;;;;5174280;28;19928;-61
2021/07/17 11:01:51;;;;;;;;;;;24.30;79.40;;;;;;5163498;28;19925;-60
2021/07/17 11:04:39;;;;;;;;;;;24.30;79.30;;;;;;4812332;28;10000366;-61
2021/07/17 11:07:17;;;;;;;;;;;24.40;79.70;;;;;;5168589;28;20114;-60
2021/07/17 11:09:56;;;;;;;;;;;24.40;79.60;;;;;;5160992;28;20384;-61
2021/07/17 11:12:30;;;;;;;;;;;24.40;79.70;;;;;;5172311;28;20679;-61
2021/07/17 11:15:05;;;;;;;;;;;24.40;79.80;;;;;;5166446;28;19928;-61
2021/07/17 11:17:41;;;;;;;;;;;24.40;79.80;;;;;;5162376;28;20543;-61
2021/07/17 11:20:23;;;;;;;;;;;24.30;79.60;;;;;;5170362;28;19925;-61
2021/07/17 11:23:11;;;;;;;;;;;24.30;79.70;;;;;;5153978;28;19924;-61
2021/07/17 11:25:54;;;;;;;;;;;24.30;79.50;;;;;;5137728;28;19924;-60
2021/07/17 11:28:45;;;;;;;;;;;24.30;80.00;;;;;;5169556;28;19932;-60
2021/07/17 11:31:29;;;;;;;;;;;24.30;80.00;;;;;;5162626;28;20428;-61
2021/07/17 11:43:14;;;;;;;;;;;24.30;81.00;;;;;;4798268;28;10001586;-60
2021/07/17 11:45:46;;;;;;;;;;;24.40;81.40;;;;;;5137042;28;20297;-60
2021/07/17 11:48:19;;;;;;;;;;;24.30;81.20;;;;;;5148108;28;19929;-60
2021/07/17 11:51:00;;;;;;;;;;;24.40;81.30;;;;;;5124928;28;19931;-60
2021/07/17 11:53:33;;;;;;;;;;;24.40;81.00;;;;;;5146421;28;19924;-60
2021/07/17 11:56:05;;;;;;;;;;;24.40;81.10;;;;;;5143527;28;19935;-60
2021/07/17 11:58:38;;;;;;;;;;;24.40;81.20;;;;;;5148601;28;19959;-59
2021/07/17 12:01:14;;;;;;;;;;;24.50;81.50;;;;;;5142944;28;19932;-61
2021/07/17 12:03:56;;;;;;;;;;;24.60;80.60;;;;;;5122204;28;20313;-61
2021/07/17 12:06:28;;;;;;;;;;;24.60;80.30;;;;;;5156340;28;19929;-60
2021/07/17 12:09:09;;;;;;;;;;;24.60;80.20;;;;;;5154108;28;20007;-61
2021/07/17 12:11:42;;;;;;;;;;;24.60;80.20;;;;;;5151838;28;20345;-61
2021/07/17 12:14:20;;;;;;;;;;;24.60;80.30;;;;;;5151403;28;20207;-58
2021/07/17 12:16:54;;;;;;;;;;;24.60;80.00;;;;;;5168741;28;20846;-54
2021/07/17 12:19:26;;;;;;;;;;;24.60;80.20;;;;;;5140358;28;20849;-58
2021/07/17 12:21:59;;;;;;;;;;;24.60;80.80;;;;;;5157273;28;21116;-57
2021/07/17 12:24:31;;;;;;;;;;;24.70;80.40;;;;;;5159601;28;19929;-57
2021/07/17 12:27:04;;;;;;;;;;;24.70;80.00;;;;;;5153140;28;19936;-58
2021/07/17 12:29:36;;;;;;;;;;;24.70;80.00;;;;;;5144279;28;19925;-58
2021/07/17 12:32:08;;;;;;;;;;;24.70;80.00;;;;;;5158607;28;19936;-55
2021/07/17 12:34:41;;;;;;;;;;;24.60;80.10;;;;;;5167253;28;19948;-58
2021/07/17 12:37:24;;;;;;;;;;;24.60;80.30;;;;;;5158096;28;21520;-57
2021/07/17 12:40:04;;;;;;;;;;;24.60;80.30;;;;;;5146411;28;19936;-58
2021/07/17 12:42:49;;;;;;;;;;;24.60;80.50;;;;;;5148030;28;20550;-59
2021/07/17 12:45:22;;;;;;;;;;;24.60;81.10;;;;;;5156637;28;19929;-58
2021/07/17 12:47:54;;;;;;;;;;;24.60;80.50;;;;;;5118447;28;19929;-60
2021/07/17 12:50:27;;;;;;;;;;;24.60;81.40;;;;;;5157061;28;19935;-58
2021/07/17 12:53:17;;;;;;;;;;;24.60;81.20;;;;;;5151508;28;19925;-59
2021/07/17 12:55:49;;;;;;;;;;;24.60;81.90;;;;;;5162009;28;19929;-59
2021/07/17 12:58:22;;;;;;;;;;;24.60;82.20;;;;;;5144920;28;20645;-59
2021/07/17 13:00:54;;;;;;;;;;;24.60;82.00;;;;;;5171435;28;19928;-59
2021/07/17 13:03:27;;;;;;;;;;;24.60;82.00;;;;;;5176427;28;19932;-59
2021/07/17 13:05:59;;;;;;;;;;;24.60;82.00;;;;;;5163443;28;20731;-59
2021/07/17 13:08:34;;;;;;;;;;;24.60;81.80;;;;;;5181364;28;19925;-60
2021/07/17 13:11:21;;;;;;;;;;;24.50;82.00;;;;;;5182003;28;19925;-59
2021/07/17 13:13:55;;;;;;;;;;;24.60;82.40;;;;;;5181333;28;19929;-60
2021/07/17 13:16:30;;;;;;;;;;;24.60;82.10;;;;;;5183380;28;19925;-58
2021/07/17 13:19:08;;;;;;;;;;;24.70;81.70;;;;;;5180990;28;20139;-59
2021/07/17 13:21:45;;;;;;;;;;;24.70;81.80;;;;;;5172168;28;20489;-60
2021/07/17 13:24:20;;;;;;;;;;;24.60;81.40;;;;;;5167269;28;19925;-59
2021/07/17 13:26:56;;;;;;;;;;;24.70;81.00;;;;;;5173035;28;19951;-59
2021/07/17 13:29:29;;;;;;;;;;;24.70;81.10;;;;;;5169436;28;19928;-58
2021/07/17 13:32:02;;;;;;;;;;;24.70;80.40;;;;;;5169976;28;19929;-58
2021/07/17 13:34:36;;;;;;;;;;;24.70;80.20;;;;;;5184840;28;19936;-59
2021/07/17 13:37:10;;;;;;;;;;;24.80;79.90;;;;;;5172092;28;19929;-60
2021/07/17 13:39:59;;;;;;;;;;;24.80;79.80;;;;;;5165827;28;20519;-57
2021/07/17 13:42:31;;;;;;;;;;;24.90;80.20;;;;;;5161209;28;19929;-59
2021/07/17 13:45:08;;;;;;;;;;;24.90;79.20;;;;;;5164557;28;19925;-59
2021/07/17 13:47:41;;;;;;;;;;;25.00;79.00;;;;;;5179292;28;20066;-58
2021/07/17 13:50:20;;;;;;;;;;;25.00;79.00;;;;;;5151933;28;19932;-60
2021/07/17 13:52:56;;;;;;;;;;;25.00;78.80;;;;;;5155920;28;19924;-59
2021/07/17 13:55:30;;;;;;;;;;;25.00;79.30;;;;;;5182153;28;19925;-59
2021/07/17 13:58:11;;;;;;;;;;;25.00;78.50;;;;;;5172432;28;19936;-60
2021/07/17 14:00:55;;;;;;;;;;;25.00;78.40;;;;;;5091086;28;10000286;-60
2021/07/17 14:03:30;;;;;;;;;;;25.00;78.30;;;;;;4825619;28;10000900;-59
2021/07/17 14:06:07;;;;;;;;;;;25.00;78.20;;;;;;5168775;28;20673;-58
2021/07/17 14:08:39;;;;;;;;;;;25.00;78.20;;;;;;5183119;28;19938;-61
2021/07/17 14:11:12;;;;;;;;;;;25.00;78.20;;;;;;5181110;28;19947;-59
2021/07/17 14:13:45;;;;;;;;;;;25.00;78.20;;;;;;5179682;28;19924;-60
2021/07/17 14:16:17;;;;;;;;;;;25.00;78.30;;;;;;5180900;28;20280;-59
2021/07/17 14:18:50;;;;;;;;;;;25.00;78.30;;;;;;5184323;28;19941;-58
2021/07/17 14:21:22;;;;;;;;;;;25.00;78.30;;;;;;5172994;28;20310;-59
2021/07/17 14:23:54;;;;;;;;;;;25.00;78.20;;;;;;5170993;28;20239;-59
2021/07/17 14:26:26;;;;;;;;;;;25.00;78.20;;;;;;5175697;28;20289;-57
2021/07/17 14:28:59;;;;;;;;;;;25.00;78.30;;;;;;5166848;28;20309;-58
2021/07/17 14:31:31;;;;;;;;;;;25.00;78.20;;;;;;5191778;28;19924;-59
2021/07/17 14:34:04;;;;;;;;;;;25.00;78.20;;;;;;5175282;28;19928;-60
2021/07/17 14:36:38;;;;;;;;;;;25.00;78.20;;;;;;5169923;28;19928;-59
2021/07/17 14:39:10;;;;;;;;;;;25.00;78.20;;;;;;5159469;28;19936;-59
2021/07/17 14:41:43;;;;;;;;;;;25.00;78.20;;;;;;5160110;28;19928;-59
2021/07/17 14:44:15;;;;;;;;;;;25.00;78.20;;;;;;5181086;28;20004;-59
2021/07/17 14:46:47;;;;;;;;;;;25.00;78.30;;;;;;5158327;28;19925;-59
2021/07/17 14:49:22;;;;;;;;;;;25.00;78.20;;;;;;5169440;28;20305;-59
2021/07/17 14:51:55;;;;;;;;;;;25.00;78.30;;;;;;5175270;28;19932;-60
2021/07/17 14:54:28;;;;;;;;;;;25.00;78.50;;;;;;5158193;28;20572;-57
2021/07/17 14:57:00;;;;;;;;;;;25.00;78.40;;;;;;5166727;28;19928;-58
2021/07/17 14:59:32;;;;;;;;;;;25.00;78.50;;;;;;5157906;28;19925;-58
2021/07/17 15:02:04;;;;;;;;;;;24.90;78.40;;;;;;5153818;28;19932;-60
2021/07/17 15:04:38;;;;;;;;;;;24.90;78.60;;;;;;5176403;28;19925;-60